Time;durP1;ratioP1;P1;durP2;ratioP2;P2;SDS_P1;SDS_P2;PMS_P1;PMS_P2;Temp;Humidity;BMP_temperature;BMP_pressure;BME280_temperature;BME280_humidity;BME280_pressure;Samples;Min_cycle;Max_cycle;Signal;HPM_P1;HPM_P2
2022/04/12 00:01:19;;;;;;;49.63;19.00;;;;;;;;;;4994326;28;20030;-60
2022/04/12 00:03:44;;;;;;;43.58;17.20;;;;;;;;;;4994723;28;20463;-61
2022/04/12 00:06:10;;;;;;;47.95;17.65;;;;;;;;;;4993498;28;20061;-60
2022/04/12 00:08:36;;;;;;;43.72;17.70;;;;;;;;;;4993545;28;20030;-60
2022/04/12 00:11:01;;;;;;;46.70;19.17;;;;;;;;;;4993374;28;20432;-61
2022/04/12 00:13:27;;;;;;;46.20;18.95;;;;;;;;;;4993960;28;20103;-60
2022/04/12 00:15:52;;;;;;;44.22;18.48;;;;;;;;;;4993221;28;20019;-61
2022/04/12 00:21:03;;;;;;;51.35;19.83;;;;;;;;;;4995486;28;20038;-60
2022/04/12 00:23:28;;;;;;;43.85;19.00;;;;;;;;;;5013832;28;20561;-63
2022/04/12 00:25:54;;;;;;;48.92;18.70;;;;;;;;;;5014061;28;20030;-62
2022/04/12 00:28:20;;;;;;;46.00;18.88;;;;;;;;;;5014363;28;20022;-62
2022/04/12 00:30:45;;;;;;;49.58;17.63;;;;;;;;;;5014585;28;20025;-62
2022/04/12 00:33:11;;;;;;;58.58;20.33;;;;;;;;;;5014415;28;20029;-62
2022/04/12 00:35:37;;;;;;;78.57;23.58;;;;;;;;;;5014297;28;20390;-61
2022/04/12 00:38:13;;;;;;;71.63;24.63;;;;;;;;;;5014286;28;20482;-63
2022/04/12 00:40:39;;;;;;;49.53;19.50;;;;;;;;;;5014334;28;20073;-61
2022/04/12 00:43:04;;;;;;;59.38;20.50;;;;;;;;;;5014256;28;20474;-62
2022/04/12 00:45:30;;;;;;;60.22;21.02;;;;;;;;;;5014264;28;20025;-62
2022/04/12 00:47:56;;;;;;;59.80;21.63;;;;;;;;;;5014148;28;20029;-61
2022/04/12 00:50:21;;;;;;;58.55;22.05;;;;;;;;;;5012703;28;20037;-61
2022/04/12 00:52:52;;;;;;;58.05;24.02;;;;;;;;;;5014067;28;20033;-62
2022/04/12 00:55:18;;;;;;;58.67;23.02;;;;;;;;;;5011680;28;20025;-62
2022/04/12 00:57:44;;;;;;;54.03;22.10;;;;;;;;;;4994389;28;20069;-62
2022/04/12 01:00:12;;;;;;;63.65;22.83;;;;;;;;;;4994263;28;20037;-61
2022/04/12 01:02:39;;;;;;;62.15;21.90;;;;;;;;;;4994229;28;20475;-61
2022/04/12 01:05:05;;;;;;;65.25;22.35;;;;;;;;;;4994255;28;20386;-60
2022/04/12 01:07:31;;;;;;;62.60;22.17;;;;;;;;;;4994332;28;20475;-61
2022/04/12 01:09:58;;;;;;;61.25;22.80;;;;;;;;;;4993937;28;20034;-61
2022/04/12 01:12:26;;;;;;;59.38;23.10;;;;;;;;;;4994047;28;20022;-61
2022/04/12 01:14:52;;;;;;;60.72;22.38;;;;;;;;;;4994175;28;20069;-61
2022/04/12 01:17:17;;;;;;;61.22;22.80;;;;;;;;;;4993912;28;20383;-60
2022/04/12 01:19:43;;;;;;;61.08;23.55;;;;;;;;;;4994054;28;20076;-60
2022/04/12 01:22:13;;;;;;;72.35;24.25;;;;;;;;;;4995162;28;20054;-61
2022/04/12 01:24:39;;;;;;;69.88;23.92;;;;;;;;;;5013865;28;20030;-61
2022/04/12 01:27:04;;;;;;;64.40;25.08;;;;;;;;;;5013501;28;20434;-63
2022/04/12 01:29:35;;;;;;;60.60;22.25;;;;;;;;;;5013363;28;20037;-62
2022/04/12 01:32:02;;;;;;;61.47;23.67;;;;;;;;;;5013147;28;20030;-61
2022/04/12 01:34:28;;;;;;;58.28;25.95;;;;;;;;;;5013386;28;20025;-62
2022/04/12 01:36:54;;;;;;;65.55;24.75;;;;;;;;;;5013173;28;20022;-61
2022/04/12 01:39:20;;;;;;;67.68;24.90;;;;;;;;;;5013291;28;20037;-61
2022/04/12 01:41:46;;;;;;;66.47;26.13;;;;;;;;;;5013306;28;20118;-62
2022/04/12 01:44:12;;;;;;;58.55;24.13;;;;;;;;;;5013239;28;20109;-61
2022/04/12 01:46:37;;;;;;;64.32;24.00;;;;;;;;;;5013035;28;20037;-61
2022/04/12 01:49:03;;;;;;;65.63;24.38;;;;;;;;;;5013142;28;20067;-62
2022/04/12 01:51:28;;;;;;;66.28;24.52;;;;;;;;;;5013218;28;20443;-61
2022/04/12 01:53:54;;;;;;;63.05;23.05;;;;;;;;;;5012888;28;20049;-62
2022/04/12 01:56:19;;;;;;;61.55;24.63;;;;;;;;;;5013138;28;20502;-62
2022/04/12 01:58:45;;;;;;;56.95;24.23;;;;;;;;;;5013015;28;20140;-61
2022/04/12 02:01:10;;;;;;;69.03;23.73;;;;;;;;;;5012965;28;20061;-61
2022/04/12 02:03:36;;;;;;;60.35;23.10;;;;;;;;;;5012999;28;20378;-61
2022/04/12 02:06:01;;;;;;;58.30;24.23;;;;;;;;;;5012797;28;20073;-62
2022/04/12 02:08:27;;;;;;;61.28;22.85;;;;;;;;;;5012777;28;20029;-60
2022/04/12 02:10:52;;;;;;;56.92;23.65;;;;;;;;;;5028005;28;20038;-61
2022/04/12 02:13:18;;;;;;;59.92;23.83;;;;;;;;;;5012843;28;20030;-61
2022/04/12 02:15:43;;;;;;;62.05;22.92;;;;;;;;;;5012636;28;20246;-60
2022/04/12 02:18:09;;;;;;;57.47;23.65;;;;;;;;;;5012721;28;20037;-60
2022/04/12 02:20:34;;;;;;;58.63;23.08;;;;;;;;;;5012770;28;20030;-61
2022/04/12 02:23:00;;;;;;;61.47;23.92;;;;;;;;;;5012269;28;20038;-60
2022/04/12 02:25:25;;;;;;;65.68;24.10;;;;;;;;;;5004524;28;20026;-62
2022/04/12 02:27:51;;;;;;;64.05;23.77;;;;;;;;;;4993183;28;20055;-61
2022/04/12 02:30:16;;;;;;;58.00;22.60;;;;;;;;;;4992688;28;20039;-61
2022/04/12 02:32:42;;;;;;;56.13;23.75;;;;;;;;;;4993157;28;20031;-61
2022/04/12 02:35:08;;;;;;;68.70;22.73;;;;;;;;;;4993075;28;20415;-62
2022/04/12 02:37:34;;;;;;;63.85;22.67;;;;;;;;;;4993027;28;20026;-62
2022/04/12 02:40:00;;;;;;;57.05;22.17;;;;;;;;;;4992939;28;20076;-61
2022/04/12 02:42:25;;;;;;;55.42;22.15;;;;;;;;;;4992919;28;20038;-62
2022/04/12 02:44:51;;;;;;;59.95;23.83;;;;;;;;;;4992847;28;20061;-60
2022/04/12 02:47:16;;;;;;;63.42;23.40;;;;;;;;;;4993755;28;20106;-62
2022/04/12 02:49:42;;;;;;;60.60;22.15;;;;;;;;;;4996740;28;20026;-63
2022/04/12 02:52:10;;;;;;;68.97;23.58;;;;;;;;;;4996723;28;20031;-62
2022/04/12 02:54:36;;;;;;;58.60;24.30;;;;;;;;;;4996707;28;20022;-61
2022/04/12 02:57:01;;;;;;;54.75;22.52;;;;;;;;;;4996848;28;20434;-60
2022/04/12 02:59:27;;;;;;;57.08;23.40;;;;;;;;;;4996457;28;20372;-63
2022/04/12 03:01:52;;;;;;;60.72;23.58;;;;;;;;;;4996517;28;20018;-62
2022/04/12 03:04:18;;;;;;;60.20;23.67;;;;;;;;;;4996552;28;20391;-62
2022/04/12 03:06:44;;;;;;;56.10;23.50;;;;;;;;;;4996619;28;20033;-63
2022/04/12 03:09:09;;;;;;;54.97;24.08;;;;;;;;;;4995289;28;20026;-62
2022/04/12 03:11:35;;;;;;;55.17;25.60;;;;;;;;;;4996488;28;20026;-62
2022/04/12 03:14:02;;;;;;;62.67;24.50;;;;;;;;;;4996069;28;20048;-63
2022/04/12 03:16:27;;;;;;;61.63;24.38;;;;;;;;;;4996326;28;20026;-63
2022/04/12 03:18:53;;;;;;;63.90;25.73;;;;;;;;;;4996279;28;20022;-61
2022/04/12 03:21:18;;;;;;;70.90;26.13;;;;;;;;;;4996012;28;20502;-62
2022/04/12 03:23:44;;;;;;;64.57;26.17;;;;;;;;;;5010635;28;20029;-62
2022/04/12 03:26:09;;;;;;;67.43;25.88;;;;;;;;;;5015998;28;20026;-61
2022/04/12 03:28:35;;;;;;;64.90;25.85;;;;;;;;;;5015666;28;20471;-60
2022/04/12 03:31:00;;;;;;;64.38;25.92;;;;;;;;;;5015614;28;20371;-60
2022/04/12 03:33:26;;;;;;;68.70;26.58;;;;;;;;;;5015641;28;20064;-61
2022/04/12 03:35:51;;;;;;;63.60;25.55;;;;;;;;;;5013505;28;20029;-61
2022/04/12 03:38:17;;;;;;;58.65;23.88;;;;;;;;;;4995451;28;20387;-61
2022/04/12 03:40:46;;;;;;;57.35;23.27;;;;;;;;;;4995824;28;20102;-61
2022/04/12 03:43:11;;;;;;;59.00;22.60;;;;;;;;;;4995282;28;20038;-61
2022/04/12 03:45:37;;;;;;;59.08;22.35;;;;;;;;;;4995631;28;20030;-61
2022/04/12 03:48:03;;;;;;;55.08;21.02;;;;;;;;;;4995422;28;20030;-61
2022/04/12 03:50:28;;;;;;;52.60;21.55;;;;;;;;;;4995620;28;20507;-60
2022/04/12 03:52:54;;;;;;;45.80;19.85;;;;;;;;;;4995579;28;20041;-60
2022/04/12 03:55:35;;;;;;;44.50;21.25;;;;;;;;;;4995579;28;20499;-60
2022/04/12 03:58:03;;;;;;;53.63;20.98;;;;;;;;;;4995254;28;20039;-61
2022/04/12 04:00:29;;;;;;;51.40;21.48;;;;;;;;;;4995591;28;20153;-61
2022/04/12 04:02:55;;;;;;;50.15;20.88;;;;;;;;;;4995414;28;20038;-61
2022/04/12 04:05:21;;;;;;;47.13;20.10;;;;;;;;;;4995774;28;20031;-60
2022/04/12 04:07:47;;;;;;;45.83;19.27;;;;;;;;;;4995347;28;20034;-60
2022/04/12 04:10:13;;;;;;;41.53;18.58;;;;;;;;;;4995094;28;20026;-61
2022/04/12 04:12:38;;;;;;;48.08;20.63;;;;;;;;;;4995052;28;20545;-60
2022/04/12 04:15:06;;;;;;;45.17;19.58;;;;;;;;;;4995151;28;20018;-60
2022/04/12 04:17:32;;;;;;;55.17;19.05;;;;;;;;;;4995119;28;20527;-60
2022/04/12 04:19:58;;;;;;;45.60;19.42;;;;;;;;;;4995002;28;20099;-61
2022/04/12 04:22:23;;;;;;;45.17;19.38;;;;;;;;;;4998172;28;20045;-60
2022/04/12 04:24:49;;;;;;;51.75;20.63;;;;;;;;;;5014592;28;20290;-61
2022/04/12 04:27:16;;;;;;;47.53;18.08;;;;;;;;;;5014300;28;20079;-62
2022/04/12 04:29:42;;;;;;;49.22;20.40;;;;;;;;;;5014343;28;20474;-61
2022/04/12 04:32:08;;;;;;;47.72;19.40;;;;;;;;;;5014279;28;20026;-61
2022/04/12 04:34:33;;;;;;;39.00;17.75;;;;;;;;;;5014377;28;20033;-60
2022/04/12 04:36:59;;;;;;;37.90;16.90;;;;;;;;;;5014383;28;20387;-61
2022/04/12 04:39:24;;;;;;;25.17;12.43;;;;;;;;;;5014659;28;20026;-61
2022/04/12 04:41:50;;;;;;;27.73;11.45;;;;;;;;;;5013964;28;20032;-61
2022/04/12 04:44:16;;;;;;;40.38;14.45;;;;;;;;;;5014269;28;20018;-61
2022/04/12 04:46:42;;;;;;;38.88;16.02;;;;;;;;;;5014126;28;20022;-61
2022/04/12 04:49:08;;;;;;;49.22;14.63;;;;;;;;;;5014046;28;20040;-61
2022/04/12 04:51:35;;;;;;;30.42;12.77;;;;;;;;;;5013988;28;20030;-62
2022/04/12 04:54:01;;;;;;;38.55;15.45;;;;;;;;;;5014131;28;20033;-62
2022/04/12 04:56:27;;;;;;;40.78;17.08;;;;;;;;;;5013804;28;20387;-61
2022/04/12 04:58:53;;;;;;;23.65;11.32;;;;;;;;;;5014300;28;20053;-61
2022/04/12 05:01:20;;;;;;;27.73;12.18;;;;;;;;;;5012707;28;20546;-61
2022/04/12 05:03:50;;;;;;;22.13;10.32;;;;;;;;;;5013955;28;20037;-61
2022/04/12 05:06:15;;;;;;;19.85;9.98;;;;;;;;;;5013820;28;20030;-62
2022/04/12 05:08:41;;;;;;;24.52;10.90;;;;;;;;;;5013692;28;20025;-62
2022/04/12 05:11:06;;;;;;;21.88;9.70;;;;;;;;;;5012651;28;20034;-61
2022/04/12 05:13:32;;;;;;;21.48;9.63;;;;;;;;;;5013778;28;20053;-60
2022/04/12 05:15:57;;;;;;;24.40;8.55;;;;;;;;;;5013565;28;20104;-63
2022/04/12 05:18:23;;;;;;;21.48;9.45;;;;;;;;;;5013612;28;20422;-60
2022/04/12 05:20:49;;;;;;;18.70;8.43;;;;;;;;;;5013591;28;20021;-60
2022/04/12 05:23:15;;;;;;;20.73;8.75;;;;;;;;;;5013150;28;20447;-62
2022/04/12 05:25:41;;;;;;;22.40;9.02;;;;;;;;;;5013547;28;20061;-61
2022/04/12 05:28:06;;;;;;;18.00;8.82;;;;;;;;;;5013386;28;20387;-61
2022/04/12 05:30:32;;;;;;;15.93;8.32;;;;;;;;;;5013277;28;20076;-62
2022/04/12 05:32:58;;;;;;;17.60;8.43;;;;;;;;;;5013276;28;20546;-61
2022/04/12 05:35:24;;;;;;;21.45;8.68;;;;;;;;;;5013431;28;20041;-62
2022/04/12 05:37:52;;;;;;;19.17;7.90;;;;;;;;;;5013333;28;20033;-62
2022/04/12 05:40:19;;;;;;;17.70;8.35;;;;;;;;;;5013250;28;20476;-62
2022/04/12 05:42:45;;;;;;;20.20;8.30;;;;;;;;;;5013177;28;20022;-63
2022/04/12 05:45:12;;;;;;;22.83;9.02;;;;;;;;;;5013092;28;20026;-62
2022/04/12 05:47:51;;;;;;;27.30;9.20;;;;;;;;;;5013100;28;20382;-62
2022/04/12 05:50:18;;;;;;;20.38;8.43;;;;;;;;;;5012953;28;20112;-63
2022/04/12 05:52:44;;;;;;;17.58;7.95;;;;;;;;;;5013087;28;20037;-63
2022/04/12 05:55:15;;;;;;;16.88;8.13;;;;;;;;;;5012743;28;20487;-63
2022/04/12 05:57:52;;;;;;;16.63;7.53;;;;;;;;;;5013033;28;20045;-63
2022/04/12 06:00:20;;;;;;;14.85;8.25;;;;;;;;;;5013240;28;20033;-62
2022/04/12 06:02:49;;;;;;;17.73;7.78;;;;;;;;;;5013164;28;20026;-62
2022/04/12 06:05:15;;;;;;;16.83;8.00;;;;;;;;;;5012776;28;20372;-63
2022/04/12 06:07:42;;;;;;;20.02;8.35;;;;;;;;;;5012614;28;20379;-62
2022/04/12 06:10:09;;;;;;;15.38;8.10;;;;;;;;;;5012641;28;20449;-62
2022/04/12 06:12:35;;;;;;;18.77;7.57;;;;;;;;;;5012777;28;20026;-63
2022/04/12 06:15:00;;;;;;;15.60;6.97;;;;;;;;;;5012642;28;20021;-62
2022/04/12 06:17:33;;;;;;;16.90;7.25;;;;;;;;;;5012749;28;20079;-63
2022/04/12 06:20:17;;;;;;;17.25;7.63;;;;;;;;;;5012557;28;20096;-62
2022/04/12 06:22:43;;;;;;;13.50;6.82;;;;;;;;;;5015569;28;20376;-62
2022/04/12 06:25:11;;;;;;;17.30;7.05;;;;;;;;;;5016823;28;20088;-62
2022/04/12 06:27:42;;;;;;;15.63;6.80;;;;;;;;;;5004844;28;20379;-61
2022/04/12 06:30:12;;;;;;;17.33;7.40;;;;;;;;;;4996672;28;20030;-62
2022/04/12 06:32:38;;;;;;;17.70;7.05;;;;;;;;;;4997278;28;20161;-62
2022/04/12 06:35:06;;;;;;;15.10;7.50;;;;;;;;;;4997028;28;20026;-61
2022/04/12 06:37:32;;;;;;;17.70;6.90;;;;;;;;;;4996262;28;20453;-61
2022/04/12 06:39:58;;;;;;;15.65;7.38;;;;;;;;;;4996987;28;20026;-61
2022/04/12 06:42:24;;;;;;;13.50;7.55;;;;;;;;;;4996964;28;20026;-61
2022/04/12 06:44:49;;;;;;;15.23;6.47;;;;;;;;;;4996928;28;20521;-61
2022/04/12 06:47:16;;;;;;;12.65;6.65;;;;;;;;;;4996764;28;20034;-62
2022/04/12 06:49:46;;;;;;;12.38;6.80;;;;;;;;;;4996959;28;20390;-59
2022/04/12 06:52:13;;;;;;;16.55;6.28;;;;;;;;;;4996532;28;20042;-62
2022/04/12 06:54:38;;;;;;;17.23;6.65;;;;;;;;;;4996684;28;20033;-62
2022/04/12 06:57:04;;;;;;;11.40;6.18;;;;;;;;;;4996598;28;20018;-60
2022/04/12 06:59:30;;;;;;;13.00;6.22;;;;;;;;;;4996599;28;20065;-61
2022/04/12 07:01:56;;;;;;;14.75;6.00;;;;;;;;;;4996744;28;20096;-62
2022/04/12 07:04:21;;;;;;;16.58;6.95;;;;;;;;;;4996556;28;20483;-61
2022/04/12 07:06:47;;;;;;;12.63;6.47;;;;;;;;;;4996196;28;20173;-61
2022/04/12 07:09:18;;;;;;;13.88;6.10;;;;;;;;;;4996366;28;20030;-61
2022/04/12 07:11:45;;;;;;;19.08;7.03;;;;;;;;;;4996385;28;20073;-61
2022/04/12 07:14:11;;;;;;;16.73;7.22;;;;;;;;;;4996214;28;20549;-61
2022/04/12 07:16:36;;;;;;;17.15;7.35;;;;;;;;;;4996888;28;20022;-61
2022/04/12 07:19:02;;;;;;;14.55;7.20;;;;;;;;;;4996199;28;20471;-61
2022/04/12 07:21:29;;;;;;;18.25;7.70;;;;;;;;;;4995962;28;20031;-62
2022/04/12 07:23:55;;;;;;;19.88;7.68;;;;;;;;;;5011541;28;20112;-61
2022/04/12 07:26:21;;;;;;;18.92;8.93;;;;;;;;;;5015993;28;20113;-62
2022/04/12 07:28:47;;;;;;;19.23;9.85;;;;;;;;;;5015606;28;20538;-61
2022/04/12 07:31:12;;;;;;;21.30;10.45;;;;;;;;;;5015605;28;20056;-61
2022/04/12 07:33:38;;;;;;;21.00;8.20;;;;;;;;;;5003418;28;20029;-62
2022/04/12 07:36:04;;;;;;;21.20;9.43;;;;;;;;;;4995674;28;20041;-61
2022/04/12 07:38:29;;;;;;;16.30;8.45;;;;;;;;;;4995691;28;20041;-61
2022/04/12 07:40:55;;;;;;;21.20;8.20;;;;;;;;;;4995837;28;20022;-61
2022/04/12 07:43:20;;;;;;;18.25;8.77;;;;;;;;;;4995793;28;20467;-61
2022/04/12 07:45:46;;;;;;;17.38;7.82;;;;;;;;;;4995803;28;20064;-61
2022/04/12 07:48:12;;;;;;;15.43;8.13;;;;;;;;;;4995660;28;20031;-61
2022/04/12 07:50:39;;;;;;;13.95;7.28;;;;;;;;;;5002528;28;20068;-61
2022/04/12 07:53:05;;;;;;;18.10;7.65;;;;;;;;;;5015022;28;20026;-61
2022/04/12 07:55:30;;;;;;;15.77;7.95;;;;;;;;;;5015068;28;20034;-61
2022/04/12 07:57:56;;;;;;;14.05;6.90;;;;;;;;;;5015146;28;20026;-61
2022/04/12 08:00:22;;;;;;;16.00;7.80;;;;;;;;;;5014926;28;20041;-61
2022/04/12 08:02:47;;;;;;;24.73;7.97;;;;;;;;;;5015047;28;20037;-62
2022/04/12 08:05:13;;;;;;;13.98;7.20;;;;;;;;;;5012134;28;20034;-62
2022/04/12 08:07:39;;;;;;;15.98;7.95;;;;;;;;;;4995350;28;20194;-63
2022/04/12 08:10:06;;;;;;;12.00;6.18;;;;;;;;;;4995467;28;20105;-62
2022/04/12 08:12:31;;;;;;;17.50;8.55;;;;;;;;;;4995448;28;20023;-61
2022/04/12 08:14:59;;;;;;;15.48;7.05;;;;;;;;;;4995122;28;20022;-61
2022/04/12 08:17:24;;;;;;;18.92;6.22;;;;;;;;;;4995196;28;20062;-61
2022/04/12 08:19:50;;;;;;;14.85;5.78;;;;;;;;;;4994878;28;20501;-61
2022/04/12 08:22:15;;;;;;;10.20;6.00;;;;;;;;;;4994307;28;20042;-62
2022/04/12 08:24:41;;;;;;;12.38;6.28;;;;;;;;;;4994657;28;20476;-61
2022/04/12 08:27:07;;;;;;;12.20;5.90;;;;;;;;;;4994828;28;20534;-61
2022/04/12 08:29:32;;;;;;;14.10;6.40;;;;;;;;;;4994820;28;20035;-61
2022/04/12 08:31:58;;;;;;;13.90;6.13;;;;;;;;;;4994874;28;20080;-62
2022/04/12 08:34:24;;;;;;;9.68;5.43;;;;;;;;;;4994436;28;20526;-62
2022/04/12 08:36:49;;;;;;;12.68;5.13;;;;;;;;;;4994748;28;20026;-61
2022/04/12 08:39:15;;;;;;;13.05;5.30;;;;;;;;;;4994811;28;20419;-61
2022/04/12 08:41:41;;;;;;;11.95;5.40;;;;;;;;;;4992765;28;20033;-62
2022/04/12 08:44:07;;;;;;;9.65;4.90;;;;;;;;;;4985127;28;20062;-61
2022/04/12 08:46:33;;;;;;;13.30;5.60;;;;;;;;;;4981828;28;20027;-62
2022/04/12 08:48:59;;;;;;;10.57;6.30;;;;;;;;;;4983224;28;20057;-62
2022/04/12 08:51:28;;;;;;;14.70;5.70;;;;;;;;;;4984116;28;20122;-61
2022/04/12 08:53:58;;;;;;;8.82;4.45;;;;;;;;;;4983640;28;20033;-62
2022/04/12 08:56:25;;;;;;;9.75;3.50;;;;;;;;;;4984301;28;20035;-62
2022/04/12 08:58:50;;;;;;;7.03;3.55;;;;;;;;;;4982101;28;20035;-62
2022/04/12 09:01:16;;;;;;;8.07;2.70;;;;;;;;;;4983740;28;20045;-62
2022/04/12 09:03:41;;;;;;;4.75;2.40;;;;;;;;;;4983312;28;20057;-61
2022/04/12 09:06:10;;;;;;;5.45;2.58;;;;;;;;;;4982545;28;20534;-61
2022/04/12 09:08:35;;;;;;;6.97;2.30;;;;;;;;;;4986387;28;20022;-62
2022/04/12 09:11:04;;;;;;;4.32;2.72;;;;;;;;;;4993845;28;20430;-61
2022/04/12 09:13:30;;;;;;;5.72;2.88;;;;;;;;;;4994380;28;20026;-62
2022/04/12 09:15:56;;;;;;;6.22;3.03;;;;;;;;;;4994074;28;20100;-62
2022/04/12 09:18:33;;;;;;;5.50;2.70;;;;;;;;;;4992392;28;20439;-62
2022/04/12 09:21:12;;;;;;;9.80;3.10;;;;;;;;;;4991373;28;20483;-61
2022/04/12 09:23:41;;;;;;;6.38;2.72;;;;;;;;;;4996352;28;20050;-61
2022/04/12 09:26:06;;;;;;;3.80;2.60;;;;;;;;;;5013365;28;20034;-62
2022/04/12 09:28:42;;;;;;;6.65;3.30;;;;;;;;;;5013414;28;20033;-61
2022/04/12 09:31:15;;;;;;;6.50;2.70;;;;;;;;;;5013237;28;20064;-61
2022/04/12 09:33:42;;;;;;;5.55;3.03;;;;;;;;;;5012005;28;20134;-61
2022/04/12 09:36:08;;;;;;;6.55;2.88;;;;;;;;;;4992543;28;20022;-61
2022/04/12 09:38:36;;;;;;;5.68;2.90;;;;;;;;;;4993707;28;20030;-61
2022/04/12 09:41:16;;;;;;;6.38;2.80;;;;;;;;;;4991850;28;20053;-61
2022/04/12 09:44:11;;;;;;;4.65;2.60;;;;;;;;;;4992300;28;20033;-61
2022/04/12 09:46:39;;;;;;;7.25;2.90;;;;;;;;;;4981478;28;20395;-61
2022/04/12 09:49:06;;;;;;;4.93;2.75;;;;;;;;;;4984055;28;20022;-61
2022/04/12 09:51:32;;;;;;;4.75;2.90;;;;;;;;;;4983695;28;20403;-61
2022/04/12 09:53:58;;;;;;;4.60;2.55;;;;;;;;;;4982259;28;20039;-61
2022/04/12 09:56:24;;;;;;;6.70;2.72;;;;;;;;;;4983814;28;20029;-61
2022/04/12 09:58:52;;;;;;;5.85;2.53;;;;;;;;;;4985554;28;20045;-61
2022/04/12 10:01:19;;;;;;;5.05;3.00;;;;;;;;;;4979728;28;20027;-61
2022/04/12 10:03:49;;;;;;;7.68;3.20;;;;;;;;;;4973478;28;20381;-61
2022/04/12 10:06:18;;;;;;;6.45;2.80;;;;;;;;;;4973871;28;20027;-61
2022/04/12 10:08:46;;;;;;;6.83;2.70;;;;;;;;;;4973694;28;20077;-62
2022/04/12 10:11:13;;;;;;;4.25;2.60;;;;;;;;;;4973588;28;20622;-61
2022/04/12 10:13:39;;;;;;;6.85;2.50;;;;;;;;;;4973710;28;20033;-61
2022/04/12 10:16:08;;;;;;;6.50;2.97;;;;;;;;;;4973506;28;20041;-62
2022/04/12 10:18:34;;;;;;;6.43;3.00;;;;;;;;;;4973687;28;20117;-61
2022/04/12 10:21:00;;;;;;;7.82;2.80;;;;;;;;;;4973528;28;20058;-61
2022/04/12 10:23:27;;;;;;;5.20;2.30;;;;;;;;;;4973646;28;20464;-60
2022/04/12 10:25:57;;;;;;;5.43;2.50;;;;;;;;;;4982216;28;20073;-61
2022/04/12 10:28:25;;;;;;;6.40;2.80;;;;;;;;;;4993038;28;20034;-61
2022/04/12 10:30:50;;;;;;;4.22;2.50;;;;;;;;;;4992510;28;20041;-61
2022/04/12 10:33:16;;;;;;;3.75;2.20;;;;;;;;;;4993259;28;20117;-62
2022/04/12 10:35:44;;;;;;;4.50;2.08;;;;;;;;;;4992672;28;20097;-61
2022/04/12 10:38:18;;;;;;;5.80;2.55;;;;;;;;;;4992356;28;20031;-61
2022/04/12 10:40:49;;;;;;;6.30;2.55;;;;;;;;;;4992840;28;20487;-62
2022/04/12 10:43:22;;;;;;;5.28;2.65;;;;;;;;;;4992930;28;20379;-62
2022/04/12 10:45:49;;;;;;;7.18;2.45;;;;;;;;;;4993116;28;20030;-61
2022/04/12 10:48:27;;;;;;;8.73;3.15;;;;;;;;;;4991526;28;20084;-62
2022/04/12 10:50:56;;;;;;;5.22;2.88;;;;;;;;;;4992724;28;20034;-62
2022/04/12 10:53:39;;;;;;;6.55;3.17;;;;;;;;;;4991594;28;20502;-62
2022/04/12 10:56:16;;;;;;;5.30;2.85;;;;;;;;;;4992889;28;20033;-62
2022/04/12 10:58:43;;;;;;;5.30;2.97;;;;;;;;;;4993185;28;20379;-62
2022/04/12 11:01:33;;;;;;;6.57;2.78;;;;;;;;;;4992921;28;20042;-62
2022/04/12 11:04:02;;;;;;;;;;;;;;;;;;4993295;28;20022;-62
2022/04/12 11:06:32;;;;;;;5.30;2.73;;;;;;;;;;4993319;28;19918;-62
2022/04/12 11:09:06;;;;;;;7.20;2.92;;;;;;;;;;4994210;28;20033;-62
2022/04/12 11:11:41;;;;;;;4.25;3.10;;;;;;;;;;4996433;28;20026;-61
2022/04/12 11:14:32;;;;;;;6.82;3.40;;;;;;;;;;4996062;28;20023;-62
2022/04/12 11:17:03;;;;;;;7.45;3.15;;;;;;;;;;4996463;28;20027;-62
2022/04/12 11:19:42;;;;;;;8.65;3.38;;;;;;;;;;4996336;28;20057;-62
2022/04/12 11:22:16;;;;;;;6.80;3.22;;;;;;;;;;4995971;28;20105;-62
2022/04/12 11:24:42;;;;;;;5.95;3.00;;;;;;;;;;4996032;28;20081;-62
2022/04/12 11:27:12;;;;;;;4.45;2.83;;;;;;;;;;5014472;28;20109;-62
2022/04/12 11:29:41;;;;;;;6.15;3.35;;;;;;;;;;5015931;28;20030;-61
2022/04/12 11:32:09;;;;;;;6.00;3.22;;;;;;;;;;5015433;28;20029;-62
2022/04/12 11:34:37;;;;;;;9.05;3.60;;;;;;;;;;5015449;28;20038;-62
2022/04/12 11:37:07;;;;;;;6.95;3.67;;;;;;;;;;5015547;28;20025;-62
2022/04/12 11:39:38;;;;;;;5.60;3.13;;;;;;;;;;5015402;28;20037;-62
2022/04/12 11:42:06;;;;;;;7.32;3.03;;;;;;;;;;5015047;28;20038;-61
2022/04/12 11:44:31;;;;;;;5.80;3.22;;;;;;;;;;5015301;28;20033;-62
2022/04/12 11:47:01;;;;;;;5.95;3.40;;;;;;;;;;5015170;28;20029;-61
2022/04/12 11:49:32;;;;;;;7.70;3.13;;;;;;;;;;5015171;28;20112;-61
2022/04/12 11:52:02;;;;;;;4.72;3.20;;;;;;;;;;5015241;28;20038;-62
2022/04/12 11:54:29;;;;;;;;;;;;;;;;;;5015698;28;20022;-61
2022/04/12 11:57:10;;;;;;;6.88;3.30;;;;;;;;;;5014721;28;19956;-60
2022/04/12 11:59:37;;;;;;;5.10;2.85;;;;;;;;;;5015087;28;20029;-60
2022/04/12 12:02:05;;;;;;;4.70;3.40;;;;;;;;;;5014984;28;20026;-60
2022/04/12 12:04:35;;;;;;;5.40;2.28;;;;;;;;;;5014934;28;20029;-61
2022/04/12 12:07:09;;;;;;;3.92;2.47;;;;;;;;;;5014814;28;20040;-62
2022/04/12 12:09:35;;;;;;;6.25;3.08;;;;;;;;;;5014745;28;20045;-61
2022/04/12 12:12:05;;;;;;;4.53;2.40;;;;;;;;;;5014522;28;20037;-61
2022/04/12 12:14:31;;;;;;;6.03;2.80;;;;;;;;;;5014956;28;20414;-61
2022/04/12 12:17:10;;;;;;;4.75;2.67;;;;;;;;;;5014667;28;20033;-61
2022/04/12 12:19:39;;;;;;;5.00;2.40;;;;;;;;;;5014388;28;20029;-60
2022/04/12 12:22:10;;;;;;;5.93;2.90;;;;;;;;;;5014357;28;20038;-61
2022/04/12 12:24:53;;;;;;;10.85;3.28;;;;;;;;;;5014401;28;20062;-61
2022/04/12 12:27:50;;;;;;;5.63;2.70;;;;;;;;;;5014710;28;20079;-60
2022/04/12 12:30:27;;;;;;;4.35;2.53;;;;;;;;;;5006026;28;20041;-61
2022/04/12 12:32:56;;;;;;;5.68;2.75;;;;;;;;;;5014381;28;20030;-60
2022/04/12 12:35:25;;;;;;;3.83;2.63;;;;;;;;;;5014832;28;20026;-61
2022/04/12 12:37:50;;;;;;;7.25;3.15;;;;;;;;;;5014240;28;20044;-61
2022/04/12 12:40:21;;;;;;;7.72;3.03;;;;;;;;;;5013922;28;20030;-60
2022/04/12 12:42:48;;;;;;;4.82;2.50;;;;;;;;;;5013093;28;20026;-62
2022/04/12 12:45:16;;;;;;;6.90;3.38;;;;;;;;;;5014429;28;20359;-62
2022/04/12 12:47:43;;;;;;;4.30;2.40;;;;;;;;;;5014146;28;20026;-62
2022/04/12 12:50:13;;;;;;;5.15;3.00;;;;;;;;;;5013871;28;20045;-62
2022/04/12 12:52:40;;;;;;;3.53;2.30;;;;;;;;;;5014098;28;20029;-62
2022/04/12 12:55:16;;;;;;;4.65;2.42;;;;;;;;;;5013635;28;20022;-62
2022/04/12 12:57:46;;;;;;;4.88;2.65;;;;;;;;;;5014320;28;20115;-62
2022/04/12 13:00:13;;;;;;;6.10;2.70;;;;;;;;;;5014143;28;20483;-62
2022/04/12 13:02:40;;;;;;;6.95;2.70;;;;;;;;;;5013835;28;20041;-61
2022/04/12 13:05:11;;;;;;;6.90;2.90;;;;;;;;;;5013586;28;20034;-61
2022/04/12 13:07:38;;;;;;;6.20;2.80;;;;;;;;;;5013675;28;20482;-61
2022/04/12 13:10:09;;;;;;;6.22;2.60;;;;;;;;;;5013292;28;20076;-61
2022/04/12 13:12:34;;;;;;;4.93;2.78;;;;;;;;;;5013896;28;20125;-61
2022/04/12 13:15:00;;;;;;;5.80;2.72;;;;;;;;;;5012287;28;20390;-62
2022/04/12 13:17:26;;;;;;;5.72;2.35;;;;;;;;;;5013883;28;20390;-61
2022/04/12 13:19:52;;;;;;;4.97;3.17;;;;;;;;;;5012215;28;20370;-61
2022/04/12 13:22:18;;;;;;;7.15;3.00;;;;;;;;;;5005979;28;20451;-61
2022/04/12 13:24:43;;;;;;;4.95;3.00;;;;;;;;;;4994094;28;20022;-61
2022/04/12 13:27:09;;;;;;;5.15;2.80;;;;;;;;;;5012589;28;20038;-61
2022/04/12 13:29:35;;;;;;;6.85;3.13;;;;;;;;;;5013380;28;20033;-61
2022/04/12 13:32:00;;;;;;;6.32;2.70;;;;;;;;;;5012804;28;20026;-63
2022/04/12 13:34:26;;;;;;;7.13;2.65;;;;;;;;;;5013638;28;20022;-62
2022/04/12 13:36:51;;;;;;;3.88;1.98;;;;;;;;;;5000408;28;20497;-62
2022/04/12 13:39:17;;;;;;;5.53;2.80;;;;;;;;;;4993501;28;20030;-62
2022/04/12 13:41:43;;;;;;;12.15;3.55;;;;;;;;;;4993282;28;20113;-63
2022/04/12 13:44:09;;;;;;;5.47;3.17;;;;;;;;;;4993507;28;20508;-63
2022/04/12 13:46:36;;;;;;;5.13;2.80;;;;;;;;;;4993396;28;20434;-63
2022/04/12 13:49:02;;;;;;;5.25;2.60;;;;;;;;;;4992934;28;20031;-64
2022/04/12 13:51:28;;;;;;;3.75;2.50;;;;;;;;;;4993429;28;20053;-62
2022/04/12 13:53:54;;;;;;;5.93;2.47;;;;;;;;;;4993499;28;20472;-63
2022/04/12 13:56:20;;;;;;;8.15;2.85;;;;;;;;;;4993509;28;20026;-63
2022/04/12 13:58:46;;;;;;;4.57;2.47;;;;;;;;;;4993495;28;20032;-62
2022/04/12 14:01:11;;;;;;;5.57;2.78;;;;;;;;;;4993141;28;20030;-62
2022/04/12 14:03:37;;;;;;;5.47;3.30;;;;;;;;;;4993209;28;20490;-62
2022/04/12 14:06:03;;;;;;;3.75;2.22;;;;;;;;;;4992404;28;20037;-61
2022/04/12 14:08:32;;;;;;;9.43;2.90;;;;;;;;;;4993138;28;20058;-61
2022/04/12 14:10:59;;;;;;;4.82;3.05;;;;;;;;;;4992147;28;20121;-61
2022/04/12 14:13:26;;;;;;;5.82;2.90;;;;;;;;;;4994719;28;20065;-61
2022/04/12 14:15:52;;;;;;;6.07;2.80;;;;;;;;;;4992024;28;20034;-61
2022/04/12 14:18:18;;;;;;;6.88;2.92;;;;;;;;;;4992358;28;20161;-62
2022/04/12 14:20:44;;;;;;;8.07;3.28;;;;;;;;;;4990433;28;20472;-61
2022/04/12 14:23:10;;;;;;;4.10;2.63;;;;;;;;;;4992883;28;20050;-62
2022/04/12 14:25:36;;;;;;;11.25;2.90;;;;;;;;;;4998594;28;20120;-62
2022/04/12 14:28:03;;;;;;;6.05;3.10;;;;;;;;;;5012687;28;20061;-62
2022/04/12 14:30:28;;;;;;;5.82;2.63;;;;;;;;;;5012094;28;20486;-62
2022/04/12 14:32:54;;;;;;;5.50;3.00;;;;;;;;;;5012846;28;20116;-62
2022/04/12 14:35:19;;;;;;;7.13;3.90;;;;;;;;;;5012212;28;20586;-62